sensor_id;sensor_type;location;lat;lon;timestamp;pressure;altitude;pressure_sealevel;temperature;humidity
73842;BME280;62184;52.006;5.924;2024-03-02T00:01:13;99104.16;;;15.48;40.15
73842;BME280;62184;52.006;5.924;2024-03-02T00:03:42;99101.31;;;15.49;40.15
73842;BME280;62184;52.006;5.924;2024-03-02T00:06:09;99103.81;;;15.52;40.23
73842;BME280;62184;52.006;5.924;2024-03-02T00:08:36;99107.16;;;15.56;40.43
73842;BME280;62184;52.006;5.924;2024-03-02T00:11:05;99107.00;;;15.57;40.18
73842;BME280;62184;52.006;5.924;2024-03-02T00:13:32;99095.28;;;15.58;40.17
73842;BME280;62184;52.006;5.924;2024-03-02T00:15:58;99098.22;;;15.55;40.20
73842;BME280;62184;52.006;5.924;2024-03-02T00:18:27;99098.22;;;15.55;40.50
73842;BME280;62184;52.006;5.924;2024-03-02T00:20:57;99097.09;;;15.58;40.53
73842;BME280;62184;52.006;5.924;2024-03-02T00:23:27;99091.72;;;15.58;40.06
73842;BME280;62184;52.006;5.924;2024-03-02T00:25:55;99096.13;;;15.59;39.99
73842;BME280;62184;52.006;5.924;2024-03-02T00:28:27;99100.78;;;15.57;40.12
73842;BME280;62184;52.006;5.924;2024-03-02T00:30:59;99096.50;;;15.54;40.30
73842;BME280;62184;52.006;5.924;2024-03-02T00:33:31;99096.28;;;15.45;40.26
73842;BME280;62184;52.006;5.924;2024-03-02T00:35:59;99098.88;;;15.46;40.25
73842;BME280;62184;52.006;5.924;2024-03-02T00:38:27;99100.25;;;15.52;40.18
73842;BME280;62184;52.006;5.924;2024-03-02T00:40:54;99093.03;;;15.52;40.17
73842;BME280;62184;52.006;5.924;2024-03-02T00:43:41;99088.16;;;15.57;40.18
73842;BME280;62184;52.006;5.924;2024-03-02T00:46:13;99096.56;;;15.65;40.09
73842;BME280;62184;52.006;5.924;2024-03-02T00:48:48;99110.03;;;15.65;40.45
73842;BME280;62184;52.006;5.924;2024-03-02T00:51:19;99103.69;;;15.66;40.48
73842;BME280;62184;52.006;5.924;2024-03-02T00:53:46;99107.13;;;15.68;40.01
73842;BME280;62184;52.006;5.924;2024-03-02T00:56:12;99106.25;;;15.68;40.30
73842;BME280;62184;52.006;5.924;2024-03-02T00:58:42;99095.38;;;15.69;40.31
73842;BME280;62184;52.006;5.924;2024-03-02T01:01:08;99119.16;;;15.76;39.92
73842;BME280;62184;52.006;5.924;2024-03-02T01:03:35;99112.69;;;15.78;40.14
73842;BME280;62184;52.006;5.924;2024-03-02T01:06:02;99127.78;;;15.81;39.76
73842;BME280;62184;52.006;5.924;2024-03-02T01:08:29;99121.75;;;15.77;40.06
73842;BME280;62184;52.006;5.924;2024-03-02T01:10:55;99128.09;;;15.76;40.03
73842;BME280;62184;52.006;5.924;2024-03-02T01:13:22;99133.38;;;15.78;40.19
73842;BME280;62184;52.006;5.924;2024-03-02T01:15:51;99127.78;;;15.81;40.17
73842;BME280;62184;52.006;5.924;2024-03-02T01:18:18;99148.09;;;15.85;39.90
73842;BME280;62184;52.006;5.924;2024-03-02T01:20:44;99142.50;;;15.88;39.98
73842;BME280;62184;52.006;5.924;2024-03-02T01:23:11;99154.69;;;15.81;40.00
73842;BME280;62184;52.006;5.924;2024-03-02T01:25:38;99168.25;;;15.79;39.87
73842;BME280;62184;52.006;5.924;2024-03-02T01:28:05;99180.22;;;15.75;40.31
73842;BME280;62184;52.006;5.924;2024-03-02T01:30:31;99185.72;;;15.74;40.32
73842;BME280;62184;52.006;5.924;2024-03-02T01:33:00;99189.38;;;15.60;40.66
73842;BME280;62184;52.006;5.924;2024-03-02T01:35:27;99181.75;;;15.66;40.44
73842;BME280;62184;52.006;5.924;2024-03-02T01:37:53;99176.66;;;15.75;40.60
73842;BME280;62184;52.006;5.924;2024-03-02T01:40:20;99183.09;;;15.85;40.58
73842;BME280;62184;52.006;5.924;2024-03-02T01:42:46;99177.97;;;15.82;40.57
73842;BME280;62184;52.006;5.924;2024-03-02T01:45:13;99183.97;;;15.85;40.99
73842;BME280;62184;52.006;5.924;2024-03-02T01:47:39;99192.91;;;15.86;41.00
73842;BME280;62184;52.006;5.924;2024-03-02T01:50:10;99188.06;;;15.78;41.48
73842;BME280;62184;52.006;5.924;2024-03-02T01:52:37;99180.09;;;15.77;41.34
73842;BME280;62184;52.006;5.924;2024-03-02T01:55:05;99177.41;;;15.77;41.79
73842;BME280;62184;52.006;5.924;2024-03-02T01:57:32;99166.19;;;15.83;41.53
73842;BME280;62184;52.006;5.924;2024-03-02T01:59:59;99162.22;;;15.88;41.47
73842;BME280;62184;52.006;5.924;2024-03-02T02:02:26;99166.06;;;15.97;41.64
73842;BME280;62184;52.006;5.924;2024-03-02T02:04:53;99158.09;;;15.95;41.54
73842;BME280;62184;52.006;5.924;2024-03-02T02:07:22;99153.78;;;15.93;41.71
73842;BME280;62184;52.006;5.924;2024-03-02T02:09:48;99154.53;;;15.95;41.60
73842;BME280;62184;52.006;5.924;2024-03-02T02:12:15;99138.88;;;16.00;41.61
73842;BME280;62184;52.006;5.924;2024-03-02T02:14:47;99142.97;;;16.05;41.63
73842;BME280;62184;52.006;5.924;2024-03-02T02:17:13;99144.06;;;16.03;41.39
73842;BME280;62184;52.006;5.924;2024-03-02T02:19:40;99149.78;;;15.98;41.75
73842;BME280;62184;52.006;5.924;2024-03-02T02:22:09;99141.72;;;15.98;41.55
73842;BME280;62184;52.006;5.924;2024-03-02T02:24:35;99141.81;;;15.97;41.99
73842;BME280;62184;52.006;5.924;2024-03-02T02:27:02;99144.72;;;15.94;41.98
73842;BME280;62184;52.006;5.924;2024-03-02T02:29:28;99146.06;;;15.88;42.00
73842;BME280;62184;52.006;5.924;2024-03-02T02:31:55;99148.84;;;15.87;42.29
73842;BME280;62184;52.006;5.924;2024-03-02T02:34:21;99137.97;;;15.88;41.98
73842;BME280;62184;52.006;5.924;2024-03-02T02:36:48;99147.13;;;15.86;42.29
73842;BME280;62184;52.006;5.924;2024-03-02T02:39:19;99154.03;;;15.90;42.02
73842;BME280;62184;52.006;5.924;2024-03-02T02:41:48;99135.91;;;15.92;42.03
73842;BME280;62184;52.006;5.924;2024-03-02T02:44:14;99140.56;;;15.90;41.93
73842;BME280;62184;52.006;5.924;2024-03-02T02:46:41;99143.00;;;15.93;42.06
73842;BME280;62184;52.006;5.924;2024-03-02T02:49:07;99149.50;;;15.90;42.10
73842;BME280;62184;52.006;5.924;2024-03-02T02:51:34;99144.22;;;15.89;41.73
73842;BME280;62184;52.006;5.924;2024-03-02T02:54:00;99135.28;;;15.88;41.75
73842;BME280;62184;52.006;5.924;2024-03-02T02:56:29;99139.44;;;15.92;41.90
73842;BME280;62184;52.006;5.924;2024-03-02T02:58:55;99146.56;;;15.93;41.66
73842;BME280;62184;52.006;5.924;2024-03-02T03:01:22;99147.78;;;15.89;41.80
73842;BME280;62184;52.006;5.924;2024-03-02T03:03:48;99149.31;;;15.81;41.67
73842;BME280;62184;52.006;5.924;2024-03-02T03:06:14;99136.72;;;15.81;41.99
73842;BME280;62184;52.006;5.924;2024-03-02T03:08:41;99139.72;;;15.77;41.80
73842;BME280;62184;52.006;5.924;2024-03-02T03:11:07;99144.34;;;15.75;41.99
73842;BME280;62184;52.006;5.924;2024-03-02T03:13:36;99142.53;;;15.75;41.89
73842;BME280;62184;52.006;5.924;2024-03-02T03:16:03;99142.88;;;15.71;41.60
73842;BME280;62184;52.006;5.924;2024-03-02T03:18:30;99149.22;;;15.69;41.98
73842;BME280;62184;52.006;5.924;2024-03-02T03:20:56;99156.31;;;15.58;42.05
73842;BME280;62184;52.006;5.924;2024-03-02T03:23:23;99137.59;;;15.56;42.10
73842;BME280;62184;52.006;5.924;2024-03-02T03:25:49;99142.22;;;15.54;42.29
73842;BME280;62184;52.006;5.924;2024-03-02T03:28:15;99151.28;;;15.53;42.20
73842;BME280;62184;52.006;5.924;2024-03-02T03:30:44;99145.25;;;15.50;42.10
73842;BME280;62184;52.006;5.924;2024-03-02T03:33:11;99152.78;;;15.45;42.46
73842;BME280;62184;52.006;5.924;2024-03-02T03:35:37;99161.72;;;15.45;42.43
73842;BME280;62184;52.006;5.924;2024-03-02T03:38:04;99162.81;;;15.43;42.77
73842;BME280;62184;52.006;5.924;2024-03-02T03:40:30;99164.41;;;15.45;42.50
73842;BME280;62184;52.006;5.924;2024-03-02T03:42:56;99168.41;;;15.40;42.53
73842;BME280;62184;52.006;5.924;2024-03-02T03:45:23;99172.94;;;15.39;42.90
73842;BME280;62184;52.006;5.924;2024-03-02T03:47:52;99178.72;;;15.33;42.90
73842;BME280;62184;52.006;5.924;2024-03-02T03:50:19;99182.94;;;15.37;43.01
73842;BME280;62184;52.006;5.924;2024-03-02T03:52:45;99174.13;;;15.35;42.94
73842;BME280;62184;52.006;5.924;2024-03-02T03:55:12;99177.66;;;15.36;43.40
73842;BME280;62184;52.006;5.924;2024-03-02T03:57:38;99188.75;;;15.31;43.05
73842;BME280;62184;52.006;5.924;2024-03-02T04:00:06;99172.50;;;15.20;43.30
73842;BME280;62184;52.006;5.924;2024-03-02T04:02:34;99180.69;;;15.18;43.45
73842;BME280;62184;52.006;5.924;2024-03-02T04:05:03;99171.53;;;15.08;43.72
73842;BME280;62184;52.006;5.924;2024-03-02T04:07:30;99171.09;;;15.02;44.01
73842;BME280;62184;52.006;5.924;2024-03-02T04:09:56;99180.56;;;14.94;44.27
73842;BME280;62184;52.006;5.924;2024-03-02T04:12:23;99179.91;;;14.91;44.38
73842;BME280;62184;52.006;5.924;2024-03-02T04:14:49;99190.66;;;14.91;44.35
73842;BME280;62184;52.006;5.924;2024-03-02T04:17:16;99199.59;;;14.91;44.21
73842;BME280;62184;52.006;5.924;2024-03-02T04:19:42;99194.00;;;14.94;44.33
73842;BME280;62184;52.006;5.924;2024-03-02T04:22:11;99180.66;;;14.93;44.15
73842;BME280;62184;52.006;5.924;2024-03-02T04:24:37;99181.53;;;14.93;44.26
73842;BME280;62184;52.006;5.924;2024-03-02T04:27:04;99164.44;;;14.94;44.40
73842;BME280;62184;52.006;5.924;2024-03-02T04:29:30;99180.91;;;14.90;44.33
73842;BME280;62184;52.006;5.924;2024-03-02T04:31:57;99179.28;;;14.87;44.17
73842;BME280;62184;52.006;5.924;2024-03-02T04:34:23;99187.25;;;14.89;44.23
73842;BME280;62184;52.006;5.924;2024-03-02T04:36:49;99178.31;;;14.88;44.15
73842;BME280;62184;52.006;5.924;2024-03-02T04:39:18;99187.25;;;14.89;44.52
73842;BME280;62184;52.006;5.924;2024-03-02T04:41:45;99188.72;;;14.93;44.14
73842;BME280;62184;52.006;5.924;2024-03-02T04:44:11;99194.13;;;14.93;44.47
73842;BME280;62184;52.006;5.924;2024-03-02T04:46:38;99196.91;;;14.91;44.11
73842;BME280;62184;52.006;5.924;2024-03-02T04:49:04;99199.50;;;14.93;44.28
73842;BME280;62184;52.006;5.924;2024-03-02T04:51:30;99193.06;;;14.96;43.89
73842;BME280;62184;52.006;5.924;2024-03-02T04:53:57;99198.63;;;14.92;44.00
73842;BME280;62184;52.006;5.924;2024-03-02T04:56:26;99202.28;;;14.91;44.10
73842;BME280;62184;52.006;5.924;2024-03-02T04:58:52;99205.09;;;14.90;43.99
73842;BME280;62184;52.006;5.924;2024-03-02T05:01:18;99212.31;;;14.89;44.01
73842;BME280;62184;52.006;5.924;2024-03-02T05:03:45;99203.13;;;14.79;44.15
73842;BME280;62184;52.006;5.924;2024-03-02T05:06:11;99205.38;;;14.73;44.15
73842;BME280;62184;52.006;5.924;2024-03-02T05:08:38;99210.19;;;14.68;44.37
73842;BME280;62184;52.006;5.924;2024-03-02T05:11:04;99220.31;;;14.64;44.13
73842;BME280;62184;52.006;5.924;2024-03-02T05:13:33;99221.25;;;14.63;44.36
73842;BME280;62184;52.006;5.924;2024-03-02T05:16:00;99227.78;;;14.59;44.43
73842;BME280;62184;52.006;5.924;2024-03-02T05:18:26;99224.47;;;14.55;44.77
73842;BME280;62184;52.006;5.924;2024-03-02T05:20:52;99231.44;;;14.58;44.61
73842;BME280;62184;52.006;5.924;2024-03-02T05:23:19;99219.84;;;14.57;44.47
73842;BME280;62184;52.006;5.924;2024-03-02T05:25:45;99224.94;;;14.48;44.71
73842;BME280;62184;52.006;5.924;2024-03-02T05:28:11;99229.47;;;14.47;44.63
73842;BME280;62184;52.006;5.924;2024-03-02T05:30:42;99231.28;;;14.47;44.70
73842;BME280;62184;52.006;5.924;2024-03-02T05:33:08;99225.03;;;14.46;44.56
73842;BME280;62184;52.006;5.924;2024-03-02T05:35:35;99224.28;;;14.44;44.63
73842;BME280;62184;52.006;5.924;2024-03-02T05:38:01;99222.72;;;14.28;44.94
73842;BME280;62184;52.006;5.924;2024-03-02T05:40:27;99223.50;;;14.15;45.02
73842;BME280;62184;52.006;5.924;2024-03-02T05:42:54;99231.00;;;14.10;45.00
73842;BME280;62184;52.006;5.924;2024-03-02T05:45:20;99231.69;;;14.14;44.82
73842;BME280;62184;52.006;5.924;2024-03-02T05:47:49;99232.53;;;14.14;44.54
73842;BME280;62184;52.006;5.924;2024-03-02T05:50:16;99240.59;;;14.14;44.49
73842;BME280;62184;52.006;5.924;2024-03-02T05:52:42;99235.59;;;14.08;44.49
73842;BME280;62184;52.006;5.924;2024-03-02T05:55:09;99236.09;;;14.01;44.67
73842;BME280;62184;52.006;5.924;2024-03-02T05:57:35;99246.94;;;13.99;44.56
73842;BME280;62184;52.006;5.924;2024-03-02T06:00:02;99254.44;;;13.94;44.86
73842;BME280;62184;52.006;5.924;2024-03-02T06:02:29;99250.03;;;13.93;44.59
73842;BME280;62184;52.006;5.924;2024-03-02T06:04:58;99248.09;;;13.95;44.83
73842;BME280;62184;52.006;5.924;2024-03-02T06:07:24;99256.63;;;14.02;44.42
73842;BME280;62184;52.006;5.924;2024-03-02T06:09:51;99253.84;;;14.03;44.42
73842;BME280;62184;52.006;5.924;2024-03-02T06:12:17;99258.16;;;14.06;44.37
73842;BME280;62184;52.006;5.924;2024-03-02T06:14:44;99262.84;;;14.02;44.37
73842;BME280;62184;52.006;5.924;2024-03-02T06:17:10;99263.81;;;14.01;44.12
73842;BME280;62184;52.006;5.924;2024-03-02T06:19:36;99259.31;;;14.02;44.20
73842;BME280;62184;52.006;5.924;2024-03-02T06:22:06;99267.44;;;14.00;44.16
73842;BME280;62184;52.006;5.924;2024-03-02T06:24:33;99270.72;;;14.05;44.21
73842;BME280;62184;52.006;5.924;2024-03-02T06:26:59;99268.91;;;14.06;43.90
73842;BME280;62184;52.006;5.924;2024-03-02T06:29:25;99278.09;;;14.02;44.03
73842;BME280;62184;52.006;5.924;2024-03-02T06:31:52;99272.03;;;13.98;44.05
73842;BME280;62184;52.006;5.924;2024-03-02T06:34:19;99275.81;;;13.96;44.28
73842;BME280;62184;52.006;5.924;2024-03-02T06:36:46;99282.03;;;13.96;43.99
73842;BME280;62184;52.006;5.924;2024-03-02T06:39:15;99284.63;;;13.98;44.33
73842;BME280;62184;52.006;5.924;2024-03-02T06:41:41;99279.66;;;14.06;44.12
73842;BME280;62184;52.006;5.924;2024-03-02T06:44:08;99280.88;;;14.14;44.12
73842;BME280;62184;52.006;5.924;2024-03-02T06:46:34;99294.66;;;14.23;44.15
73842;BME280;62184;52.006;5.924;2024-03-02T06:49:00;99293.41;;;14.28;44.21
73842;BME280;62184;52.006;5.924;2024-03-02T06:51:27;99280.25;;;14.38;43.89
73842;BME280;62184;52.006;5.924;2024-03-02T06:53:53;99283.56;;;14.41;44.00
73842;BME280;62184;52.006;5.924;2024-03-02T06:56:22;99291.84;;;14.38;44.01
73842;BME280;62184;52.006;5.924;2024-03-02T06:58:49;99297.31;;;14.37;44.32
73842;BME280;62184;52.006;5.924;2024-03-02T07:01:15;99289.53;;;14.46;44.08
73842;BME280;62184;52.006;5.924;2024-03-02T07:03:41;99293.91;;;14.62;44.04
73842;BME280;62184;52.006;5.924;2024-03-02T07:06:08;99297.25;;;14.65;43.66
73842;BME280;62184;52.006;5.924;2024-03-02T07:08:34;99301.28;;;14.72;43.53
73842;BME280;62184;52.006;5.924;2024-03-02T07:11:01;99302.59;;;14.79;43.63
73842;BME280;62184;52.006;5.924;2024-03-02T07:13:30;99304.19;;;14.82;43.33
73842;BME280;62184;52.006;5.924;2024-03-02T07:15:56;99304.41;;;14.79;43.31
73842;BME280;62184;52.006;5.924;2024-03-02T07:18:22;99309.13;;;14.75;43.27
73842;BME280;62184;52.006;5.924;2024-03-02T07:20:49;99307.19;;;14.77;43.25
73842;BME280;62184;52.006;5.924;2024-03-02T07:23:15;99317.84;;;14.79;43.63
73842;BME280;62184;52.006;5.924;2024-03-02T07:25:42;99329.06;;;14.85;43.46
73842;BME280;62184;52.006;5.924;2024-03-02T07:28:08;99334.13;;;14.90;43.17
73842;BME280;62184;52.006;5.924;2024-03-02T07:30:37;99331.53;;;14.88;43.05
73842;BME280;62184;52.006;5.924;2024-03-02T07:33:04;99326.38;;;14.85;43.38
73842;BME280;62184;52.006;5.924;2024-03-02T07:35:30;99331.75;;;14.85;43.12
73842;BME280;62184;52.006;5.924;2024-03-02T07:37:57;99332.69;;;14.84;43.39
73842;BME280;62184;52.006;5.924;2024-03-02T07:40:24;99334.34;;;14.87;43.11
73842;BME280;62184;52.006;5.924;2024-03-02T07:42:51;99341.13;;;14.92;43.22
73842;BME280;62184;52.006;5.924;2024-03-02T07:45:17;99339.00;;;14.98;43.17
73842;BME280;62184;52.006;5.924;2024-03-02T07:47:46;99344.25;;;14.99;42.70
73842;BME280;62184;52.006;5.924;2024-03-02T07:50:13;99343.19;;;15.02;42.92
73842;BME280;62184;52.006;5.924;2024-03-02T07:52:39;99337.38;;;15.08;42.90
73842;BME280;62184;52.006;5.924;2024-03-02T07:55:07;99337.09;;;15.12;42.79
73842;BME280;62184;52.006;5.924;2024-03-02T07:57:33;99340.03;;;15.22;42.59
73842;BME280;62184;52.006;5.924;2024-03-02T08:00:00;99337.78;;;15.41;42.58
73842;BME280;62184;52.006;5.924;2024-03-02T08:02:26;99343.09;;;15.55;42.34
73842;BME280;62184;52.006;5.924;2024-03-02T08:04:55;99339.22;;;15.59;42.33
73842;BME280;62184;52.006;5.924;2024-03-02T08:07:22;99341.75;;;15.62;41.95
73842;BME280;62184;52.006;5.924;2024-03-02T08:09:48;99350.16;;;15.71;42.13
73842;BME280;62184;52.006;5.924;2024-03-02T08:12:15;99349.72;;;15.64;41.95
73842;BME280;62184;52.006;5.924;2024-03-02T08:14:41;99341.22;;;15.70;42.17
73842;BME280;62184;52.006;5.924;2024-03-02T08:17:08;99349.72;;;15.77;42.05
73842;BME280;62184;52.006;5.924;2024-03-02T08:19:34;99342.91;;;15.84;41.87
73842;BME280;62184;52.006;5.924;2024-03-02T08:22:04;99344.34;;;15.89;41.88
73842;BME280;62184;52.006;5.924;2024-03-02T08:24:30;99349.06;;;15.98;41.67
73842;BME280;62184;52.006;5.924;2024-03-02T08:26:58;99340.25;;;15.96;41.56
73842;BME280;62184;52.006;5.924;2024-03-02T08:29:24;99341.72;;;16.00;41.66
73842;BME280;62184;52.006;5.924;2024-03-02T08:31:51;99340.31;;;16.07;41.16
73842;BME280;62184;52.006;5.924;2024-03-02T08:34:17;99340.63;;;16.16;41.43
73842;BME280;62184;52.006;5.924;2024-03-02T08:36:44;99337.09;;;16.15;41.08
73842;BME280;62184;52.006;5.924;2024-03-02T08:39:14;99346.66;;;16.19;41.03
73842;BME280;62184;52.006;5.924;2024-03-02T08:41:41;99355.16;;;16.26;40.81
73842;BME280;62184;52.006;5.924;2024-03-02T08:44:08;99347.84;;;16.28;40.50
73842;BME280;62184;52.006;5.924;2024-03-02T08:46:35;99354.75;;;16.32;40.78
73842;BME280;62184;52.006;5.924;2024-03-02T08:49:01;99366.44;;;16.43;40.13
73842;BME280;62184;52.006;5.924;2024-03-02T08:51:28;99358.25;;;16.45;40.09
73842;BME280;62184;52.006;5.924;2024-03-02T08:53:54;99355.00;;;16.53;39.83
73842;BME280;62184;52.006;5.924;2024-03-02T08:56:23;99360.28;;;16.54;39.54
73842;BME280;62184;52.006;5.924;2024-03-02T08:58:50;99358.78;;;16.63;39.55
73842;BME280;62184;52.006;5.924;2024-03-02T09:01:18;99358.22;;;16.70;39.56
73842;BME280;62184;52.006;5.924;2024-03-02T09:03:45;99356.78;;;16.77;39.01
73842;BME280;62184;52.006;5.924;2024-03-02T09:06:11;99369.81;;;16.83;39.08
73842;BME280;62184;52.006;5.924;2024-03-02T09:08:38;99370.84;;;16.94;39.02
73842;BME280;62184;52.006;5.924;2024-03-02T09:11:04;99367.69;;;17.00;39.04
73842;BME280;62184;52.006;5.924;2024-03-02T09:13:35;99361.41;;;16.88;37.95
73842;BME280;62184;52.006;5.924;2024-03-02T09:16:02;99365.63;;;16.79;38.31
73842;BME280;62184;52.006;5.924;2024-03-02T09:18:29;99367.25;;;16.82;38.24
73842;BME280;62184;52.006;5.924;2024-03-02T09:20:55;99357.47;;;16.92;38.59
73842;BME280;62184;52.006;5.924;2024-03-02T09:23:22;99360.03;;;17.06;38.54
73842;BME280;62184;52.006;5.924;2024-03-02T09:25:48;99364.97;;;17.12;38.24
73842;BME280;62184;52.006;5.924;2024-03-02T09:28:15;99370.84;;;17.17;37.83
73842;BME280;62184;52.006;5.924;2024-03-02T09:30:44;99368.50;;;17.13;37.76
73842;BME280;62184;52.006;5.924;2024-03-02T09:33:11;99362.94;;;17.27;37.83
73842;BME280;62184;52.006;5.924;2024-03-02T09:35:37;99368.31;;;17.27;38.11
73842;BME280;62184;52.006;5.924;2024-03-02T09:38:04;99368.59;;;17.35;37.95
73842;BME280;62184;52.006;5.924;2024-03-02T09:40:30;99370.59;;;17.44;37.29
73842;BME280;62184;52.006;5.924;2024-03-02T09:42:57;99371.56;;;17.32;37.26
73842;BME280;62184;52.006;5.924;2024-03-02T09:45:24;99371.41;;;17.34;37.09
73842;BME280;62184;52.006;5.924;2024-03-02T09:47:54;99366.88;;;17.34;36.94
73842;BME280;62184;52.006;5.924;2024-03-02T09:50:21;99369.00;;;17.42;37.04
73842;BME280;62184;52.006;5.924;2024-03-02T09:52:48;99359.59;;;17.47;37.27
73842;BME280;62184;52.006;5.924;2024-03-02T09:55:16;99361.88;;;17.65;37.05
73842;BME280;62184;52.006;5.924;2024-03-02T09:57:43;99356.34;;;17.66;37.04
73842;BME280;62184;52.006;5.924;2024-03-02T10:00:11;99369.97;;;17.65;36.72
73842;BME280;62184;52.006;5.924;2024-03-02T10:02:38;99362.84;;;17.75;36.70
73842;BME280;62184;52.006;5.924;2024-03-02T10:05:07;99366.44;;;17.86;36.89
73842;BME280;62184;52.006;5.924;2024-03-02T10:07:34;99367.56;;;17.95;36.40
73842;BME280;62184;52.006;5.924;2024-03-02T10:10:12;99365.00;;;18.05;35.95
73842;BME280;62184;52.006;5.924;2024-03-02T10:12:40;99359.63;;;18.16;36.22
73842;BME280;62184;52.006;5.924;2024-03-02T10:15:07;99361.09;;;18.31;36.34
73842;BME280;62184;52.006;5.924;2024-03-02T10:17:34;99375.38;;;18.55;35.63
73842;BME280;62184;52.006;5.924;2024-03-02T10:20:24;99366.47;;;18.76;35.29
73842;BME280;62184;52.006;5.924;2024-03-02T10:22:50;99361.38;;;18.93;35.20
73842;BME280;62184;52.006;5.924;2024-03-02T10:25:29;99366.66;;;19.06;34.81
73842;BME280;62184;52.006;5.924;2024-03-02T10:27:57;99365.41;;;19.10;35.01
73842;BME280;62184;52.006;5.924;2024-03-02T10:30:24;99350.75;;;19.13;34.67
73842;BME280;62184;52.006;5.924;2024-03-02T10:32:51;99349.66;;;19.15;34.42
73842;BME280;62184;52.006;5.924;2024-03-02T10:35:19;99349.47;;;19.28;34.87
73842;BME280;62184;52.006;5.924;2024-03-02T10:37:49;99353.03;;;19.39;33.97
73842;BME280;62184;52.006;5.924;2024-03-02T10:40:16;99351.38;;;19.48;33.95
73842;BME280;62184;52.006;5.924;2024-03-02T10:42:44;99346.91;;;19.58;33.53
73842;BME280;62184;52.006;5.924;2024-03-02T10:45:12;99339.47;;;19.60;33.71
73842;BME280;62184;52.006;5.924;2024-03-02T10:47:42;99344.53;;;19.65;33.44
73842;BME280;62184;52.006;5.924;2024-03-02T10:50:09;99332.03;;;19.73;33.50
73842;BME280;62184;52.006;5.924;2024-03-02T10:52:38;99337.28;;;19.96;33.61
73842;BME280;62184;52.006;5.924;2024-03-02T10:55:06;99322.06;;;20.04;32.80
73842;BME280;62184;52.006;5.924;2024-03-02T10:57:45;99320.03;;;19.97;32.91
73842;BME280;62184;52.006;5.924;2024-03-02T11:00:18;99318.56;;;19.93;31.97
73842;BME280;62184;52.006;5.924;2024-03-02T11:02:49;99326.75;;;20.02;32.76
73842;BME280;62184;52.006;5.924;2024-03-02T11:05:26;99323.19;;;20.23;32.55
73842;BME280;62184;52.006;5.924;2024-03-02T11:07:59;99321.25;;;20.44;32.31
73842;BME280;62184;52.006;5.924;2024-03-02T11:10:33;99322.03;;;20.55;31.79
73842;BME280;62184;52.006;5.924;2024-03-02T11:13:04;99322.63;;;20.59;31.79
73842;BME280;62184;52.006;5.924;2024-03-02T11:15:35;99323.78;;;20.76;32.04
73842;BME280;62184;52.006;5.924;2024-03-02T11:18:03;99324.22;;;20.81;31.82
73842;BME280;62184;52.006;5.924;2024-03-02T11:20:31;99328.09;;;20.88;31.29
73842;BME280;62184;52.006;5.924;2024-03-02T11:23:07;99325.97;;;20.91;31.60
73842;BME280;62184;52.006;5.924;2024-03-02T11:25:38;99326.16;;;21.00;31.81
73842;BME280;62184;52.006;5.924;2024-03-02T11:28:05;99321.00;;;21.06;30.96
73842;BME280;62184;52.006;5.924;2024-03-02T11:30:50;99322.28;;;21.02;30.61
73842;BME280;62184;52.006;5.924;2024-03-02T11:33:25;99319.66;;;20.91;31.02
73842;BME280;62184;52.006;5.924;2024-03-02T11:35:52;99317.81;;;20.91;30.82
73842;BME280;62184;52.006;5.924;2024-03-02T11:38:21;99328.69;;;21.01;31.42
73842;BME280;62184;52.006;5.924;2024-03-02T11:40:48;99320.28;;;21.23;31.22
73842;BME280;62184;52.006;5.924;2024-03-02T11:43:15;99324.28;;;21.39;30.23
73842;BME280;62184;52.006;5.924;2024-03-02T11:45:42;99316.41;;;21.36;30.54
73842;BME280;62184;52.006;5.924;2024-03-02T11:48:11;99328.44;;;21.33;30.55
73842;BME280;62184;52.006;5.924;2024-03-02T11:50:41;99310.44;;;21.32;30.40
73842;BME280;62184;52.006;5.924;2024-03-02T11:53:09;99303.84;;;21.34;30.91
73842;BME280;62184;52.006;5.924;2024-03-02T11:55:39;99302.41;;;21.40;30.55
73842;BME280;62184;52.006;5.924;2024-03-02T11:58:06;99302.84;;;21.45;30.74
73842;BME280;62184;52.006;5.924;2024-03-02T12:00:33;99297.41;;;21.45;29.72
73842;BME280;62184;52.006;5.924;2024-03-02T12:03:00;99299.44;;;21.33;29.97
73842;BME280;62184;52.006;5.924;2024-03-02T12:05:28;99297.00;;;21.30;29.81
73842;BME280;62184;52.006;5.924;2024-03-02T12:07:56;99288.25;;;21.46;30.27
73842;BME280;62184;52.006;5.924;2024-03-02T12:10:23;99286.94;;;21.60;30.12
73842;BME280;62184;52.006;5.924;2024-03-02T12:12:57;99282.06;;;21.73;28.99
73842;BME280;62184;52.006;5.924;2024-03-02T12:15:26;99279.09;;;21.76;29.36
73842;BME280;62184;52.006;5.924;2024-03-02T12:17:54;99274.34;;;21.78;28.98
73842;BME280;62184;52.006;5.924;2024-03-02T12:20:21;99283.22;;;21.80;28.72
73842;BME280;62184;52.006;5.924;2024-03-02T12:22:48;99283.50;;;21.67;28.33
73842;BME280;62184;52.006;5.924;2024-03-02T12:25:15;99272.03;;;21.74;28.67
73842;BME280;62184;52.006;5.924;2024-03-02T12:27:42;99258.84;;;21.88;28.42
73842;BME280;62184;52.006;5.924;2024-03-02T12:30:11;99258.16;;;21.77;28.26
73842;BME280;62184;52.006;5.924;2024-03-02T12:32:38;99268.88;;;21.88;28.69
73842;BME280;62184;52.006;5.924;2024-03-02T12:35:06;99274.84;;;22.01;27.61
73842;BME280;62184;52.006;5.924;2024-03-02T12:37:33;99262.66;;;22.05;28.50
73842;BME280;62184;52.006;5.924;2024-03-02T12:39:59;99268.94;;;22.05;27.30
73842;BME280;62184;52.006;5.924;2024-03-02T12:42:26;99281.47;;;21.89;26.89
73842;BME280;62184;52.006;5.924;2024-03-02T12:44:55;99268.88;;;21.88;27.55
73842;BME280;62184;52.006;5.924;2024-03-02T12:47:24;99268.00;;;21.87;27.74
73842;BME280;62184;52.006;5.924;2024-03-02T12:49:50;99262.84;;;21.94;27.49
73842;BME280;62184;52.006;5.924;2024-03-02T12:52:17;99262.28;;;21.90;27.61
73842;BME280;62184;52.006;5.924;2024-03-02T12:54:43;99257.41;;;21.94;27.72
73842;BME280;62184;52.006;5.924;2024-03-02T12:57:10;99261.66;;;22.06;27.71
73842;BME280;62184;52.006;5.924;2024-03-02T12:59:45;99249.94;;;22.33;27.61
73842;BME280;62184;52.006;5.924;2024-03-02T13:02:17;99244.94;;;22.56;26.76